Albert Maersk — OUOW2 — position and weather

sailwx.info

Track history (hours):
 
Tides and Currents Weather Stations Pressure Air Temp Water Temp Dewpoint Dewpoint Depression Visibility Wind Speed Wind Dir Waves Ship Positions

Albert Maersk

Last reported at 2015-Mar-31 20:30 UTC. Time now 2015-Apr-01 14:32 UTC.
Position N 29°46' E 122°34'.

MMSI: 220259928.

Date/timePositionNaut miles runAvg speedWind from/ knotsBaromVisibWave heightAir tempDewpointWater temp
2015-Mar-31 20:30N 29°46' E 122°34'0 0.1
2015-Mar-31 19:30N 29°46' E 122°34'0 0.1
2015-Mar-31 18:12N 29°46' E 122°35'0 0.1
2015-Mar-31 15:33N 29°46' E 122°35'0 0.0
2015-Mar-31 12:03N 29°46' E 122°34'0 0.0
2015-Mar-31 10:27N 29°46' E 122°34'0 0.1
2015-Mar-31 06:21N 29°46' E 122°35'2 2.6
2015-Mar-31 05:33N 29°46' E 122°37'1110.7
2015-Mar-31 04:32N 29°52' E 122°48'2712.7
2015-Mar-31 02:27N 30°18' E 122°56'3315.2
2015-Mar-31 00:17N 30°32' E 122°21'811.2
2015-Mar-30 23:33N 30°34' E 122°12'9 9.3
2015-Mar-30 22:33N 30°38' E 122°03'0 0.0
2015-Mar-30 21:33N 30°38' E 122°03'0 0.0
2015-Mar-30 20:33N 30°38' E 122°03'0 0.0
2015-Mar-30 18:33N 30°38' E 122°03'0 0.0
2015-Mar-30 17:33N 30°38' E 122°03'0 0.0
2015-Mar-30 16:30N 30°38' E 122°03'0 0.0
2015-Mar-30 15:33N 30°38' E 122°03'0 0.0
2015-Mar-30 14:30N 30°38' E 122°03'0 0.1
2015-Mar-30 13:32N 30°38' E 122°03'0 0.0
2015-Mar-30 12:32N 30°38' E 122°03'0 0.0
2015-Mar-30 11:08N 30°38' E 122°03'0 0.0
2015-Mar-30 10:32N 30°38' E 122°03'0 0.0
2015-Mar-30 09:32N 30°38' E 122°03'0 0.0
2015-Mar-30 08:31N 30°38' E 122°03'0 0.3
2015-Mar-30 07:30N 30°38' E 122°02'9 8.8
2015-Mar-30 06:32N 30°34' E 122°11'8 8.2
2015-Mar-30 05:33N 30°33' E 122°21'10 9.6
2015-Mar-30 04:33N 30°31' E 122°32'7 0.7
2015-Mar-29 19:09N 30°28' E 122°39'0 0.2
2015-Mar-29 18:06N 30°28' E 122°39'0 0.0
2015-Mar-29 17:30N 30°28' E 122°39'0 0.1
2015-Mar-29 16:33N 30°28' E 122°39'0 0.1
2015-Mar-29 15:18N 30°28' E 122°39'0 0.0
2015-Mar-29 14:08N 30°28' E 122°39'0 0.1
2015-Mar-29 13:29N 30°28' E 122°39'0 0.0
2015-Mar-29 11:29N 30°28' E 122°39'8 8.5
2015-Mar-29 10:34N 30°26' E 122°47'3012.6
2015-Mar-29 08:08N 29°59' E 123°03'813.3
2015-Mar-29 07:33N 29°51' E 123°03'1312.8
2015-Mar-29 06:33N 29°38' E 123°03'1312.7
2015-Mar-29 05:33N 29°25' E 123°02'1612.8
2015-Mar-29 04:18N 29°10' E 123°06'36 8.8
2015-Mar-29 00:15N 28°35' E 122°57'31012.5
2015-Mar-27 23:31N 24°30' E 119°24'1010.9
2015-Mar-27 22:33N 24°24' E 119°15'3911.3
2015-Mar-27 19:05N 23°60' E 118°42'1112.0
2015-Mar-27 18:12N 23°54' E 118°32'812.3
2015-Mar-27 17:33N 23°49' E 118°25'1312.6
2015-Mar-27 16:33N 23°41' E 118°14'1212.2
2015-Mar-27 15:33N 23°33' E 118°04'1312.2
2015-Mar-27 14:29N 23°25' E 117°53'1212.0
2015-Mar-27 13:27N 23°18' E 117°42'1112.0
2015-Mar-27 12:33N 23°11' E 117°33'1612.4
2015-Mar-27 11:14N 23°02' E 117°18'1312.8
2015-Mar-27 10:14N 22°57' E 117°05'1113.1
2015-Mar-27 09:22N 22°51' E 116°55'1113.1
2015-Mar-27 08:31N 22°46' E 116°44'12611.4
2015-Mar-26 21:31N 22°23' E 114°30'1513.4
2015-Mar-26 20:25N 22°34' E 114°19'2 1.1
2015-Mar-26 18:10N 22°34' E 114°16'0 0.0
2015-Mar-26 15:16N 22°34' E 114°16'0 0.0
2015-Mar-26 14:28N 22°34' E 114°16'0 0.1
2015-Mar-26 13:28N 22°34' E 114°16'0 0.0
2015-Mar-26 12:05N 22°34' E 114°16'0 0.1
2015-Mar-26 11:10N 22°34' E 114°16'0 0.0
2015-Mar-26 10:10N 22°34' E 114°16'0 0.1
2015-Mar-26 09:20N 22°34' E 114°16'22 7.0
2015-Mar-26 06:13N 22°14' E 114°25'1113.0
2015-Mar-26 05:23N 22°08' E 114°15'1211.7
2015-Mar-26 04:23N 22°16' E 114°06'4 3.9
2015-Mar-26 03:25N 22°20' E 114°07'0 0.0
2015-Mar-26 02:28N 22°20' E 114°07'0 0.0
2015-Mar-26 01:22N 22°20' E 114°07'0 0.0
2015-Mar-26 00:31N 22°20' E 114°07'0 0.0
2015-Mar-25 23:16N 22°20' E 114°07'0 0.0
2015-Mar-25 22:19N 22°20' E 114°07'0 0.0
2015-Mar-25 21:13N 22°20' E 114°07'0 0.0
2015-Mar-25 20:22N 22°20' E 114°07'0 0.0
2015-Mar-25 19:28N 22°20' E 114°07'0 0.0
2015-Mar-25 18:31N 22°20' E 114°07'0 0.0
2015-Mar-25 17:31N 22°20' E 114°07'0 0.0
2015-Mar-25 16:28N 22°20' E 114°07'0 0.1
2015-Mar-25 15:33N 22°20' E 114°07'8 6.9
2015-Mar-25 14:27N 22°13' E 114°10'9 9.9
2015-Mar-25 13:32N 22°09' E 114°19'1110.7
2015-Mar-25 12:32N 22°06' E 114°30'1616.1
2015-Mar-25 11:33N 21°50' E 114°25'  
2015-Mar-22 01:31N 01°16' E 104°09'1515.6
2015-Mar-22 00:32N 01°12' E 103°54'9 9.0
2015-Mar-21 23:34N 01°09' E 103°46'  
Track history (hours):
 
Tides and Currents Weather Stations Pressure Air Temp Water Temp Dewpoint Dewpoint Depression Visibility Wind Speed Wind Dir Waves Ship Positions

Albert Maersk

Last reported at 2015-Mar-31 20:30 UTC. Time now 2015-Apr-01 14:32 UTC.
Position N 29°46' E 122°34'.

MMSI: 220259928.

Date/timePositionNaut miles runAvg speedWind from/ knotsBaromVisibWave heightAir tempDewpointWater temp
2015-Mar-31 20:30N 29°46' E 122°34'0 0.1
2015-Mar-31 19:30N 29°46' E 122°34'0 0.1
2015-Mar-31 18:12N 29°46' E 122°35'0 0.1
2015-Mar-31 15:33N 29°46' E 122°35'0 0.0
2015-Mar-31 12:03N 29°46' E 122°34'0 0.0
2015-Mar-31 10:27N 29°46' E 122°34'0 0.1
2015-Mar-31 06:21N 29°46' E 122°35'2 2.6
2015-Mar-31 05:33N 29°46' E 122°37'1110.7
2015-Mar-31 04:32N 29°52' E 122°48'2712.7
2015-Mar-31 02:27N 30°18' E 122°56'3315.2
2015-Mar-31 00:17N 30°32' E 122°21'811.2
2015-Mar-30 23:33N 30°34' E 122°12'9 9.3
2015-Mar-30 22:33N 30°38' E 122°03'0 0.0
2015-Mar-30 21:33N 30°38' E 122°03'0 0.0
2015-Mar-30 20:33N 30°38' E 122°03'0 0.0
2015-Mar-30 18:33N 30°38' E 122°03'0 0.0
2015-Mar-30 17:33N 30°38' E 122°03'0 0.0
2015-Mar-30 16:30N 30°38' E 122°03'0 0.0
2015-Mar-30 15:33N 30°38' E 122°03'0 0.0
2015-Mar-30 14:30N 30°38' E 122°03'0 0.1
2015-Mar-30 13:32N 30°38' E 122°03'0 0.0
2015-Mar-30 12:32N 30°38' E 122°03'0 0.0
2015-Mar-30 11:08N 30°38' E 122°03'0 0.0
2015-Mar-30 10:32N 30°38' E 122°03'0 0.0
2015-Mar-30 09:32N 30°38' E 122°03'0 0.0
2015-Mar-30 08:31N 30°38' E 122°03'0 0.3
2015-Mar-30 07:30N 30°38' E 122°02'9 8.8
2015-Mar-30 06:32N 30°34' E 122°11'8 8.2
2015-Mar-30 05:33N 30°33' E 122°21'10 9.6
2015-Mar-30 04:33N 30°31' E 122°32'7 0.7
2015-Mar-29 19:09N 30°28' E 122°39'0 0.2
2015-Mar-29 18:06N 30°28' E 122°39'0 0.0
2015-Mar-29 17:30N 30°28' E 122°39'0 0.1
2015-Mar-29 16:33N 30°28' E 122°39'0 0.1
2015-Mar-29 15:18N 30°28' E 122°39'0 0.0
2015-Mar-29 14:08N 30°28' E 122°39'0 0.1
2015-Mar-29 13:29N 30°28' E 122°39'0 0.0
2015-Mar-29 11:29N 30°28' E 122°39'8 8.5
2015-Mar-29 10:34N 30°26' E 122°47'3012.6
2015-Mar-29 08:08N 29°59' E 123°03'813.3
2015-Mar-29 07:33N 29°51' E 123°03'1312.8
2015-Mar-29 06:33N 29°38' E 123°03'1312.7
2015-Mar-29 05:33N 29°25' E 123°02'1612.8
2015-Mar-29 04:18N 29°10' E 123°06'36 8.8
2015-Mar-29 00:15N 28°35' E 122°57'31012.5
2015-Mar-27 23:31N 24°30' E 119°24'1010.9
2015-Mar-27 22:33N 24°24' E 119°15'3911.3
2015-Mar-27 19:05N 23°60' E 118°42'1112.0
2015-Mar-27 18:12N 23°54' E 118°32'812.3
2015-Mar-27 17:33N 23°49' E 118°25'1312.6
2015-Mar-27 16:33N 23°41' E 118°14'1212.2
2015-Mar-27 15:33N 23°33' E 118°04'1312.2
2015-Mar-27 14:29N 23°25' E 117°53'1212.0
2015-Mar-27 13:27N 23°18' E 117°42'1112.0
2015-Mar-27 12:33N 23°11' E 117°33'1612.4
2015-Mar-27 11:14N 23°02' E 117°18'1312.8
2015-Mar-27 10:14N 22°57' E 117°05'1113.1
2015-Mar-27 09:22N 22°51' E 116°55'1113.1
2015-Mar-27 08:31N 22°46' E 116°44'12611.4
2015-Mar-26 21:31N 22°23' E 114°30'1513.4
2015-Mar-26 20:25N 22°34' E 114°19'2 1.1
2015-Mar-26 18:10N 22°34' E 114°16'0 0.0
2015-Mar-26 15:16N 22°34' E 114°16'0 0.0
2015-Mar-26 14:28N 22°34' E 114°16'0 0.1
2015-Mar-26 13:28N 22°34' E 114°16'0 0.0
2015-Mar-26 12:05N 22°34' E 114°16'0 0.1
2015-Mar-26 11:10N 22°34' E 114°16'0 0.0
2015-Mar-26 10:10N 22°34' E 114°16'0 0.1
2015-Mar-26 09:20N 22°34' E 114°16'22 7.0
2015-Mar-26 06:13N 22°14' E 114°25'1113.0
2015-Mar-26 05:23N 22°08' E 114°15'1211.7
2015-Mar-26 04:23N 22°16' E 114°06'4 3.9
2015-Mar-26 03:25N 22°20' E 114°07'0 0.0
2015-Mar-26 02:28N 22°20' E 114°07'0 0.0
2015-Mar-26 01:22N 22°20' E 114°07'0 0.0
2015-Mar-26 00:31N 22°20' E 114°07'0 0.0
2015-Mar-25 23:16N 22°20' E 114°07'0 0.0
2015-Mar-25 22:19N 22°20' E 114°07'0 0.0
2015-Mar-25 21:13N 22°20' E 114°07'0 0.0
2015-Mar-25 20:22N 22°20' E 114°07'0 0.0
2015-Mar-25 19:28N 22°20' E 114°07'0 0.0
2015-Mar-25 18:31N 22°20' E 114°07'0 0.0
2015-Mar-25 17:31N 22°20' E 114°07'0 0.0
2015-Mar-25 16:28N 22°20' E 114°07'0 0.1
2015-Mar-25 15:33N 22°20' E 114°07'8 6.9
2015-Mar-25 14:27N 22°13' E 114°10'9 9.9
2015-Mar-25 13:32N 22°09' E 114°19'1110.7
2015-Mar-25 12:32N 22°06' E 114°30'1616.1
2015-Mar-25 11:33N 21°50' E 114°25'  
2015-Mar-22 01:31N 01°16' E 104°09'1515.6
2015-Mar-22 00:32N 01°12' E 103°54'9 9.0
2015-Mar-21 23:34N 01°09' E 103°46'  

Dump ship's entire track history